createdAt,value
2019-01-28T00:00:52.746Z,64.67
2019-01-28T00:03:21.322Z,67.37
2019-01-28T00:05:49.874Z,64.40
2019-01-28T00:08:18.598Z,67.47
2019-01-28T00:10:47.094Z,64.93
2019-01-28T00:13:15.578Z,68.63
2019-01-28T00:15:44.098Z,61.17
2019-01-28T00:18:12.582Z,56.53
2019-01-28T00:20:41.102Z,67.03
2019-01-28T00:23:09.742Z,63.30
2019-01-28T00:25:38.247Z,66.37
2019-01-28T00:28:06.750Z,59.90
2019-01-28T00:30:35.238Z,59.70
2019-01-28T00:33:03.694Z,58.73
2019-01-28T00:35:32.194Z,60.43
2019-01-28T00:38:00.630Z,64.43
2019-01-28T00:40:29.122Z,58.87
2019-01-28T00:42:57.642Z,57.93
2019-01-28T00:45:26.146Z,66.37
2019-01-28T00:47:54.619Z,54.10
2019-01-28T00:50:23.121Z,62.57
2019-01-28T00:52:52.169Z,55.73
2019-01-28T00:55:20.638Z,57.00
2019-01-28T00:57:49.102Z,46.70
2019-01-28T01:00:19.545Z,57.30
2019-01-28T01:02:48.044Z,59.83
2019-01-28T01:05:16.909Z,60.58
2019-01-28T01:07:45.442Z,59.77
2019-01-28T01:10:13.937Z,56.37
2019-01-28T01:12:42.686Z,56.37
2019-01-28T01:15:13.467Z,56.40
2019-01-28T01:17:42.318Z,55.10
2019-01-28T01:20:12.241Z,51.90
2019-01-28T01:22:40.750Z,54.83
2019-01-28T01:25:09.830Z,59.67
2019-01-28T01:27:38.383Z,58.53
2019-01-28T01:30:09.046Z,59.40
2019-01-28T01:32:37.513Z,59.03
2019-01-28T01:35:06.057Z,60.77
2019-01-28T01:37:35.273Z,54.67
2019-01-28T01:40:04.174Z,58.50
2019-01-28T01:42:32.641Z,55.73
2019-01-28T01:45:01.130Z,58.78
2019-01-28T01:47:29.589Z,56.17
2019-01-28T01:49:58.130Z,56.13
2019-01-28T01:52:26.638Z,53.13
2019-01-28T01:54:56.753Z,57.97
2019-01-28T01:57:25.237Z,51.33
2019-01-28T01:59:53.713Z,55.87
2019-01-28T02:02:22.841Z,55.73
2019-01-28T02:04:51.293Z,56.40
2019-01-28T02:07:19.941Z,56.77
2019-01-28T02:09:48.497Z,59.73
2019-01-28T02:12:17.313Z,60.13
2019-01-28T02:14:45.785Z,60.50
2019-01-28T02:17:14.481Z,54.67
2019-01-28T02:19:43.168Z,53.40
2019-01-28T02:22:11.636Z,51.03
2019-01-28T02:24:40.098Z,52.53
2019-01-28T02:27:08.913Z,50.73
2019-01-28T02:29:37.369Z,50.97
2019-01-28T02:32:05.831Z,49.57
2019-01-28T02:34:34.349Z,54.17
2019-01-28T02:37:02.821Z,50.33
2019-01-28T02:39:31.278Z,56.03
2019-01-28T02:41:59.754Z,52.90
2019-01-28T02:44:28.253Z,57.77
2019-01-28T02:46:57.009Z,51.80
2019-01-28T02:49:25.468Z,56.73
2019-01-28T02:51:54.333Z,59.93
2019-01-28T02:54:22.798Z,55.90
2019-01-28T02:56:51.293Z,50.10
2019-01-28T02:59:19.736Z,54.03
2019-01-28T03:01:48.180Z,53.23
2019-01-28T03:04:16.965Z,53.83
2019-01-28T03:06:45.440Z,52.47
2019-01-28T03:09:13.908Z,57.80
2019-01-28T03:11:42.664Z,53.63
2019-01-28T03:14:11.137Z,53.97
2019-01-28T03:16:39.692Z,52.57
2019-01-28T03:19:08.198Z,54.47
2019-01-28T03:21:36.701Z,51.77
2019-01-28T03:24:05.177Z,55.47
2019-01-28T03:26:33.653Z,51.57
2019-01-28T03:29:02.102Z,52.73
2019-01-28T03:31:30.562Z,50.60
2019-01-28T03:33:59.036Z,45.78
2019-01-28T03:36:27.497Z,53.67
2019-01-28T03:38:55.941Z,48.97
2019-01-28T03:41:24.568Z,49.93
2019-01-28T03:43:53.145Z,48.70
2019-01-28T03:46:21.708Z,54.10
2019-01-28T03:48:50.237Z,48.67
2019-01-28T03:51:19.094Z,56.07
2019-01-28T03:53:47.596Z,53.17
2019-01-28T03:56:16.505Z,54.33
2019-01-28T03:58:45.024Z,52.20
2019-01-28T04:01:13.502Z,49.17
2019-01-28T04:03:42.360Z,52.63
2019-01-28T04:06:10.864Z,50.73
2019-01-28T04:08:39.345Z,52.43
2019-01-28T04:11:08.097Z,49.63
2019-01-28T04:13:36.603Z,53.27
2019-01-28T04:16:05.074Z,55.37
2019-01-28T04:18:34.145Z,54.60
2019-01-28T04:21:02.632Z,46.50
2019-01-28T04:23:31.089Z,52.83
2019-01-28T04:25:59.588Z,53.30
2019-01-28T04:28:28.380Z,53.60
2019-01-28T04:30:57.490Z,52.37
2019-01-28T04:33:26.013Z,58.77
2019-01-28T04:35:54.492Z,56.33
2019-01-28T04:38:22.927Z,55.73
2019-01-28T04:40:51.673Z,53.13
2019-01-28T04:43:20.132Z,59.97
2019-01-28T04:45:48.599Z,57.27
2019-01-28T04:48:17.047Z,54.80
2019-01-28T04:50:45.549Z,57.43
2019-01-28T04:53:14.039Z,52.57
2019-01-28T04:55:42.475Z,56.53
2019-01-28T04:58:10.965Z,52.40
2019-01-28T05:00:39.783Z,57.17
2019-01-28T05:03:08.278Z,56.37
2019-01-28T05:05:37.127Z,53.23
2019-01-28T05:08:05.640Z,61.17
2019-01-28T05:10:34.109Z,59.63
2019-01-28T05:13:04.873Z,48.77
2019-01-28T05:15:31.435Z,55.97
2019-01-28T05:17:59.871Z,56.13
2019-01-28T05:20:28.371Z,63.07
2019-01-28T05:22:56.989Z,58.00
2019-01-28T05:25:25.736Z,62.93
2019-01-28T05:27:54.587Z,54.90
2019-01-28T05:30:24.396Z,56.63
2019-01-28T05:32:53.118Z,54.83
2019-01-28T05:35:21.865Z,56.10
2019-01-28T05:37:50.484Z,56.00
2019-01-28T05:40:20.771Z,54.63
2019-01-28T05:42:49.315Z,54.60
2019-01-28T05:45:18.066Z,53.70
2019-01-28T05:47:46.559Z,56.80
2019-01-28T05:50:15.197Z,60.43
2019-01-28T05:52:43.680Z,53.20
2019-01-28T05:55:12.603Z,60.43
2019-01-28T05:57:41.255Z,56.13
2019-01-28T06:00:15.700Z,56.97
2019-01-28T06:02:44.229Z,58.90
2019-01-28T06:05:12.772Z,57.73
2019-01-28T06:07:41.219Z,60.03
2019-01-28T06:10:10.603Z,54.53
2019-01-28T06:12:39.191Z,59.33
2019-01-28T06:15:09.607Z,56.10
2019-01-28T06:17:39.101Z,57.10
2019-01-28T06:20:10.019Z,58.27
2019-01-28T06:22:38.515Z,56.07
2019-01-28T06:25:07.084Z,59.17
2019-01-28T06:27:35.547Z,61.47
2019-01-28T06:30:07.162Z,57.57
2019-01-28T06:32:35.722Z,54.63
2019-01-28T06:35:05.939Z,64.00
2019-01-28T06:37:34.479Z,55.07
2019-01-28T06:40:03.003Z,62.37
2019-01-28T06:42:31.486Z,62.73
2019-01-28T06:44:59.976Z,61.10
2019-01-28T06:47:28.450Z,64.60
2019-01-28T06:49:57.235Z,56.83
2019-01-28T06:52:25.711Z,55.13
2019-01-28T06:54:54.202Z,59.30
2019-01-28T06:57:23.051Z,56.47
2019-01-28T06:59:51.646Z,62.60
2019-01-28T07:02:20.098Z,54.73
2019-01-28T07:04:48.518Z,58.17
2019-01-28T07:07:17.026Z,61.70
2019-01-28T07:09:45.499Z,51.10
2019-01-28T07:12:14.198Z,55.70
2019-01-28T07:14:42.646Z,54.07
2019-01-28T07:17:11.082Z,61.93
2019-01-28T07:19:39.858Z,59.47
2019-01-28T07:22:08.398Z,56.77
2019-01-28T07:24:36.858Z,60.33
2019-01-28T07:27:05.442Z,57.13
2019-01-28T07:29:33.878Z,53.57
2019-01-28T07:32:02.331Z,58.90
2019-01-28T07:34:30.802Z,60.27
2019-01-28T07:36:59.257Z,55.77
2019-01-28T07:39:27.814Z,57.13
2019-01-28T07:41:56.284Z,61.30
2019-01-28T07:44:24.733Z,58.10
2019-01-28T07:46:53.230Z,56.53
2019-01-28T07:49:21.669Z,56.97
2019-01-28T07:51:50.140Z,55.70
2019-01-28T07:54:18.940Z,60.57
2019-01-28T07:56:47.696Z,54.30
2019-01-28T07:59:16.444Z,59.17
2019-01-28T08:01:44.912Z,55.03
2019-01-28T08:04:13.384Z,48.30
2019-01-28T08:06:41.884Z,52.17
2019-01-28T08:09:10.386Z,55.57
2019-01-28T08:11:38.877Z,55.50
2019-01-28T08:14:07.380Z,57.53
2019-01-28T08:16:36.162Z,52.27
2019-01-28T08:19:04.904Z,59.60
2019-01-28T08:21:33.383Z,55.97
2019-01-28T08:24:01.881Z,64.50
2019-01-28T08:26:30.324Z,63.97
2019-01-28T08:28:58.780Z,56.47
2019-01-28T08:31:27.976Z,63.80
2019-01-28T08:33:56.444Z,57.80
2019-01-28T08:36:24.929Z,57.40
2019-01-28T08:38:53.436Z,57.37
2019-01-28T08:41:21.900Z,56.53
2019-01-28T08:43:51.216Z,56.17
2019-01-28T08:46:20.472Z,57.23
2019-01-28T08:48:49.285Z,57.43
2019-01-28T08:51:19.398Z,61.80
2019-01-28T08:53:46.600Z,62.37
2019-01-28T08:56:16.929Z,64.03
2019-01-28T08:58:43.647Z,66.70
2019-01-28T09:01:12.312Z,59.77
2019-01-28T09:03:40.784Z,63.50
2019-01-28T09:06:09.280Z,56.87
2019-01-28T09:08:39.525Z,65.17
2019-01-28T09:11:06.392Z,63.40
2019-01-28T09:13:34.845Z,57.67
2019-01-28T09:16:03.433Z,59.30
2019-01-28T09:18:31.927Z,58.73
2019-01-28T09:21:00.408Z,54.23
2019-01-28T09:23:28.916Z,53.93
2019-01-28T09:25:57.376Z,60.70
2019-01-28T09:28:25.886Z,56.47
2019-01-28T09:30:54.368Z,62.07
2019-01-28T09:33:22.908Z,64.10
2019-01-28T09:35:51.556Z,66.67
2019-01-28T09:38:20.051Z,66.97
2019-01-28T09:40:48.879Z,73.33
2019-01-28T09:43:17.629Z,72.13
2019-01-28T09:45:46.795Z,64.87
2019-01-28T09:48:16.365Z,63.53
2019-01-28T09:50:45.384Z,63.30
2019-01-28T09:53:14.219Z,63.47
2019-01-28T09:55:42.736Z,59.20
2019-01-28T09:58:11.223Z,68.27
2019-01-28T10:00:41.936Z,56.63
2019-01-28T10:03:10.698Z,68.47
2019-01-28T10:05:39.241Z,64.87
2019-01-28T10:08:08.379Z,67.87
2019-01-28T10:10:36.999Z,68.70
2019-01-28T10:13:05.511Z,65.90
2019-01-28T10:15:34.023Z,64.33
2019-01-28T10:18:02.499Z,66.40
2019-01-28T10:20:34.307Z,59.10
2019-01-28T10:23:03.059Z,64.07
2019-01-28T10:25:31.487Z,71.63
2019-01-28T10:28:00.000Z,66.40
2019-01-28T10:30:30.711Z,69.57
2019-01-28T10:32:59.239Z,73.13
2019-01-28T10:35:28.932Z,66.17
2019-01-28T10:37:57.720Z,68.40
2019-01-28T10:40:28.044Z,72.80
2019-01-28T10:42:56.567Z,67.30
2019-01-28T10:45:25.411Z,67.10
2019-01-28T10:47:53.991Z,72.83
2019-01-28T10:50:22.535Z,72.20
2019-01-28T10:52:51.532Z,73.30
2019-01-28T10:55:20.971Z,74.77
2019-01-28T10:57:49.443Z,67.97
2019-01-28T11:00:23.463Z,68.50
2019-01-28T11:02:51.998Z,60.83
2019-01-28T11:05:20.532Z,62.63
2019-01-28T11:07:48.994Z,57.30
2019-01-28T11:11:21.090Z,67.30
2019-01-28T11:13:49.547Z,61.43
2019-01-28T11:16:18.003Z,65.75
2019-01-28T11:18:46.554Z,62.40
2019-01-28T11:21:15.048Z,65.03
2019-01-28T11:23:43.612Z,60.73
2019-01-28T11:26:12.167Z,63.77
2019-01-28T11:28:40.662Z,65.33
2019-01-28T11:31:11.137Z,71.13
2019-01-28T11:33:39.985Z,64.17
2019-01-28T11:36:09.676Z,61.07
2019-01-28T11:38:38.175Z,67.40
2019-01-28T11:41:06.691Z,68.23
2019-01-28T11:43:35.159Z,69.03
2019-01-28T11:46:05.689Z,69.23
2019-01-28T11:48:34.158Z,72.80
2019-01-28T11:51:02.614Z,71.87
2019-01-28T11:56:30.007Z,64.43
2019-01-28T11:58:58.499Z,67.97
2019-01-28T12:01:31.086Z,69.23
2019-01-28T12:03:59.584Z,61.00
2019-01-28T12:06:28.111Z,61.83
2019-01-28T12:08:56.742Z,63.00
2019-01-28T12:11:25.648Z,64.00
2019-01-28T12:13:54.135Z,67.60
2019-01-28T12:16:22.630Z,59.20
2019-01-28T12:18:51.163Z,66.60
2019-01-28T12:21:19.932Z,62.27
2019-01-28T12:23:48.396Z,67.60
2019-01-28T12:26:16.964Z,64.20
2019-01-28T12:28:45.952Z,68.87
2019-01-28T12:31:14.472Z,66.95
2019-01-28T12:33:42.956Z,70.33
2019-01-28T12:36:11.425Z,66.65
2019-01-28T12:38:39.896Z,68.47
2019-01-28T12:41:08.416Z,73.33
2019-01-28T12:43:37.288Z,74.13
2019-01-28T12:46:05.808Z,63.83
2019-01-28T12:48:34.364Z,73.43
2019-01-28T12:51:02.824Z,67.17
2019-01-28T12:53:31.318Z,67.87
2019-01-28T12:55:59.834Z,65.30
2019-01-28T12:58:28.584Z,74.60
2019-01-28T13:01:01.552Z,65.05
2019-01-28T13:03:30.056Z,68.67
2019-01-28T13:05:58.500Z,74.77
2019-01-28T13:08:27.868Z,74.13
2019-01-28T13:10:55.552Z,76.17
2019-01-28T13:13:24.167Z,72.60
2019-01-28T13:15:53.396Z,73.50
2019-01-28T13:18:21.888Z,73.80
2019-01-28T13:20:50.888Z,76.93
2019-01-28T13:23:19.800Z,66.92
2019-01-28T13:25:48.356Z,74.27
2019-01-28T13:28:16.979Z,71.33
2019-01-28T13:30:45.441Z,69.53
2019-01-28T13:33:15.691Z,70.03
2019-01-28T13:35:44.211Z,66.50
2019-01-28T13:38:12.687Z,68.35
2019-01-28T13:40:41.159Z,63.90
2019-01-28T13:43:09.731Z,68.63
2019-01-28T13:45:38.207Z,77.20
2019-01-28T13:48:09.373Z,69.67
2019-01-28T13:50:38.251Z,67.27
2019-01-28T13:53:06.742Z,69.90
2019-01-28T13:55:35.239Z,65.37
2019-01-28T13:58:04.720Z,67.50
2019-01-28T14:00:33.612Z,70.50
2019-01-28T14:03:02.360Z,67.60
2019-01-28T14:05:30.889Z,66.83
2019-01-28T14:07:59.408Z,67.37
2019-01-28T14:10:27.956Z,68.13
2019-01-28T14:12:56.548Z,70.40
2019-01-28T14:15:28.297Z,69.62
2019-01-28T14:17:56.780Z,76.03
2019-01-28T14:21:28.568Z,73.00
2019-01-28T14:23:57.131Z,73.50
2019-01-28T14:26:25.656Z,68.50
2019-01-28T14:28:54.156Z,68.73
2019-01-28T14:31:42.337Z,72.00
2019-01-28T14:34:10.853Z,64.77
2019-01-28T14:36:39.611Z,71.83
2019-01-28T14:39:13.732Z,69.43
2019-01-28T14:41:45.476Z,67.73
2019-01-28T14:44:13.967Z,69.17
2019-01-28T14:46:42.419Z,72.10
2019-01-28T14:49:10.943Z,77.27
2019-01-28T14:51:39.443Z,73.80
2019-01-28T14:54:08.367Z,73.10
2019-01-28T14:56:36.963Z,73.33
2019-01-28T14:59:05.519Z,75.97
2019-01-28T15:01:34.483Z,73.37
2019-01-28T15:04:03.004Z,74.87
2019-01-28T15:06:31.624Z,80.07
2019-01-28T15:09:00.184Z,69.67
2019-01-28T15:11:28.716Z,65.33
2019-01-28T15:13:57.228Z,71.17
2019-01-28T15:16:25.756Z,69.40
2019-01-28T15:18:54.214Z,71.57
2019-01-28T15:21:22.708Z,73.63
2019-01-28T15:23:51.181Z,73.17
2019-01-28T15:26:19.805Z,79.20
2019-01-28T15:28:48.337Z,72.87
2019-01-28T15:31:17.152Z,77.40
2019-01-28T15:33:45.659Z,72.13
2019-01-28T15:36:14.324Z,75.07
2019-01-28T15:38:42.784Z,73.00
2019-01-28T15:41:11.304Z,72.80
2019-01-28T15:43:39.801Z,74.63
2019-01-28T15:46:08.319Z,79.60
2019-01-28T15:48:36.780Z,81.77
2019-01-28T15:51:05.419Z,76.60
2019-01-28T15:53:34.090Z,81.13
2019-01-28T15:56:02.780Z,85.83
2019-01-28T15:58:31.259Z,77.83
2019-01-28T16:01:00.354Z,77.77
2019-01-28T16:03:28.816Z,78.37
2019-01-28T16:05:57.326Z,80.50
2019-01-28T16:08:25.790Z,75.07
2019-01-28T16:10:54.263Z,78.20
2019-01-28T16:13:22.715Z,83.80
2019-01-28T16:15:52.251Z,72.37
2019-01-28T16:18:20.703Z,76.93
2019-01-28T16:20:49.175Z,71.30
2019-01-28T16:23:18.022Z,70.37
2019-01-28T16:25:46.494Z,73.20
2019-01-28T16:28:15.294Z,71.90
2019-01-28T16:30:44.054Z,71.33
2019-01-28T16:33:12.555Z,73.80
2019-01-28T16:35:41.030Z,66.87
2019-01-28T16:38:09.488Z,73.90
2019-01-28T16:40:38.394Z,78.30
2019-01-28T16:43:06.937Z,78.83
2019-01-28T16:45:35.466Z,73.97
2019-01-28T16:48:05.878Z,73.07
2019-01-28T16:50:34.410Z,77.87
2019-01-28T16:53:02.878Z,77.50
2019-01-28T16:55:31.389Z,72.93
2019-01-28T16:57:59.951Z,70.73
2019-01-28T17:00:30.406Z,68.87
2019-01-28T17:02:58.926Z,66.60
2019-01-28T17:05:27.541Z,73.03
2019-01-28T17:07:56.022Z,77.57
2019-01-28T17:10:24.676Z,72.17
2019-01-28T17:12:53.110Z,79.10
2019-01-28T17:15:22.023Z,80.83
2019-01-28T17:17:50.527Z,88.53
2019-01-28T17:20:21.103Z,83.07
2019-01-28T17:22:49.614Z,79.80
2019-01-28T17:25:21.567Z,82.92
2019-01-28T17:27:50.219Z,85.43
2019-01-28T17:30:24.951Z,81.17
2019-01-28T17:32:53.790Z,95.53
2019-01-28T17:35:22.099Z,99.93
2019-01-28T17:37:50.881Z,97.13
2019-01-28T17:40:19.801Z,94.90
2019-01-28T17:42:48.607Z,93.20
2019-01-28T17:45:18.627Z,98.67
2019-01-28T17:47:47.227Z,98.50
2019-01-28T17:50:15.807Z,104.37
2019-01-28T17:52:44.322Z,101.57
2019-01-28T17:55:13.123Z,92.33
2019-01-28T17:57:41.667Z,98.27
2019-01-28T18:00:13.699Z,95.60
2019-01-28T18:02:42.355Z,102.47
2019-01-28T18:05:10.995Z,102.90
2019-01-28T18:07:39.731Z,104.57
2019-01-28T18:10:10.243Z,108.77
2019-01-28T18:12:38.727Z,107.57
2019-01-28T18:15:09.903Z,107.13
2019-01-28T18:17:38.563Z,105.73
2019-01-28T18:20:09.886Z,113.73
2019-01-28T18:22:43.687Z,103.00
2019-01-28T18:25:13.863Z,114.30
2019-01-28T18:27:42.631Z,117.57
2019-01-28T18:30:16.091Z,109.93
2019-01-28T18:32:44.584Z,107.83
2019-01-28T18:35:13.158Z,117.83
2019-01-28T18:37:41.666Z,114.47
2019-01-28T18:40:11.074Z,119.83
2019-01-28T18:42:39.786Z,118.73
2019-01-28T18:45:09.419Z,116.57
2019-01-28T18:47:37.924Z,130.27
2019-01-28T18:50:07.135Z,118.33
2019-01-28T18:52:35.911Z,118.33
2019-01-28T18:55:06.087Z,121.00
2019-01-28T18:57:34.608Z,126.07
2019-01-28T19:00:03.226Z,120.07
2019-01-28T19:02:31.804Z,119.13
2019-01-28T19:05:00.468Z,122.10
2019-01-28T19:07:34.276Z,109.10
2019-01-28T19:10:10.000Z,118.20
2019-01-28T19:14:48.852Z,109.50
2019-01-28T19:18:23.952Z,116.07
2019-01-28T19:20:57.916Z,113.83
2019-01-28T19:23:26.572Z,122.83
2019-01-28T19:25:55.721Z,126.57
2019-01-28T19:28:24.468Z,117.20
2019-01-28T19:30:53.192Z,119.07
2019-01-28T19:33:21.721Z,112.70
2019-01-28T19:35:50.478Z,123.83
2019-01-28T19:38:19.116Z,106.10
2019-01-28T19:40:47.613Z,117.23
2019-01-28T19:43:16.109Z,119.00
2019-01-28T19:45:44.648Z,117.77
2019-01-28T19:49:16.040Z,110.90
2019-01-28T19:51:45.228Z,104.60
2019-01-28T19:54:13.840Z,111.87
2019-01-28T19:56:42.327Z,115.67
2019-01-28T19:59:10.968Z,127.13
2019-01-28T20:01:39.489Z,104.47
2019-01-28T20:04:08.005Z,128.23
2019-01-28T20:06:36.561Z,120.73
2019-01-28T20:09:07.748Z,127.83
2019-01-28T20:11:36.311Z,121.73
2019-01-28T20:14:04.852Z,123.67
2019-01-28T20:16:33.368Z,126.20
2019-01-28T20:19:01.868Z,124.07
2019-01-28T20:21:30.386Z,121.03
2019-01-28T20:23:58.982Z,129.83
2019-01-28T20:26:27.531Z,140.27
2019-01-28T20:28:56.082Z,132.83
2019-01-28T20:31:24.572Z,127.87
2019-01-28T20:33:53.026Z,135.87
2019-01-28T20:36:21.510Z,124.33
2019-01-28T20:38:50.039Z,130.33
2019-01-28T20:41:18.651Z,123.33
2019-01-28T20:43:47.287Z,117.87
2019-01-28T20:46:15.827Z,127.27
2019-01-28T20:48:44.351Z,135.57
2019-01-28T20:51:12.931Z,129.00
2019-01-28T20:53:41.536Z,131.57
2019-01-28T20:56:10.468Z,130.50
2019-01-28T20:58:39.010Z,125.83
2019-01-28T21:01:07.508Z,130.03
2019-01-28T21:03:36.330Z,143.90
2019-01-28T21:06:05.159Z,133.17
2019-01-28T21:08:33.743Z,140.27
2019-01-28T21:11:02.251Z,141.90
2019-01-28T21:13:30.794Z,130.17
2019-01-28T21:15:59.316Z,135.45
2019-01-28T21:18:27.891Z,129.10
2019-01-28T21:20:57.007Z,143.10
2019-01-28T21:23:25.487Z,141.60
2019-01-28T21:25:53.968Z,144.53
2019-01-28T21:28:22.499Z,135.40
2019-01-28T21:30:51.539Z,144.67
2019-01-28T21:33:20.287Z,132.00
2019-01-28T21:35:58.037Z,128.27
2019-01-28T21:38:30.420Z,131.93
2019-01-28T21:40:58.955Z,136.00
2019-01-28T21:43:27.843Z,127.57
2019-01-28T21:45:56.335Z,141.17
2019-01-28T21:48:24.979Z,127.67
2019-01-28T21:50:53.647Z,122.83
2019-01-28T21:53:22.143Z,135.33
2019-01-28T21:55:50.634Z,134.37
2019-01-28T21:58:19.208Z,128.67
2019-01-28T22:00:47.693Z,123.30
2019-01-28T22:03:16.536Z,128.70
2019-01-28T22:05:45.105Z,136.77
2019-01-28T22:08:13.848Z,150.73
2019-01-28T22:10:42.372Z,142.77
2019-01-28T22:13:10.924Z,137.83
2019-01-28T22:15:39.437Z,134.30
2019-01-28T22:18:07.990Z,139.30
2019-01-28T22:20:36.513Z,136.00
2019-01-28T22:23:05.406Z,135.70
2019-01-28T22:25:33.964Z,133.33
2019-01-28T22:28:02.420Z,132.27
2019-01-28T22:30:31.031Z,140.17
2019-01-28T22:32:59.509Z,136.30
2019-01-28T22:35:27.995Z,149.70
2019-01-28T22:37:56.605Z,147.17
2019-01-28T22:40:25.097Z,147.73
2019-01-28T22:42:53.608Z,155.03
2019-01-28T22:45:22.195Z,145.60
2019-01-28T22:47:50.673Z,152.37
2019-01-28T22:50:19.251Z,146.47
2019-01-28T22:52:47.840Z,147.30
2019-01-28T22:55:16.636Z,154.43
2019-01-28T22:57:45.111Z,145.80
2019-01-28T23:00:20.087Z,144.63
2019-01-28T23:02:48.623Z,148.13
2019-01-28T23:05:17.323Z,138.43
2019-01-28T23:07:45.863Z,143.80
2019-01-28T23:10:14.510Z,145.17
2019-01-28T23:12:42.987Z,137.60
2019-01-28T23:15:11.531Z,138.37
2019-01-28T23:17:40.049Z,141.03
2019-01-28T23:20:08.653Z,146.17
2019-01-28T23:22:37.311Z,142.17
2019-01-28T23:25:05.879Z,139.67
2019-01-28T23:27:34.339Z,145.87
2019-01-28T23:30:02.929Z,140.83
2019-01-28T23:32:31.447Z,143.20
2019-01-28T23:35:00.271Z,136.30
2019-01-28T23:37:28.747Z,145.13
2019-01-28T23:39:57.287Z,137.90
2019-01-28T23:42:27.171Z,134.23
2019-01-28T23:44:55.655Z,135.80
2019-01-28T23:47:24.184Z,136.30
2019-01-28T23:49:52.714Z,146.17
2019-01-28T23:52:25.064Z,142.80
2019-01-28T23:54:49.823Z,145.73
2019-01-28T23:57:18.302Z,150.20
2019-01-28T23:59:46.767Z,140.57
